Time;durP1;ratioP1;P1;durP2;ratioP2;P2;SDS_P1;SDS_P2;PMS_P1;PMS_P2;Temp;Humidity;BMP_temperature;BMP_pressure;BME280_temperature;BME280_humidity;BME280_pressure;Samples;Min_cycle;Max_cycle;Signal;HPM_P1;HPM_P2
2023/09/13 00:00:49;;;;;;;;;;;;;;;34.11;31.01;97915.22;5091208;28;19925;-84
2023/09/13 00:03:15;;;;;;;;;;;;;;;34.35;30.60;97913.59;5095676;28;20011;-84
2023/09/13 00:05:42;;;;;;;;;;;;;;;34.25;30.54;97915.06;5095467;28;19963;-84
2023/09/13 00:08:08;;;;;;;;;;;;;;;34.54;30.31;97911.13;5094478;28;19934;-84
2023/09/13 00:10:34;;;;;;;;;;;;;;;34.34;30.32;97916.94;5093180;28;19920;-84
2023/09/13 00:13:00;;;;;;;;;;;;;;;34.56;30.15;97911.41;5077369;28;19942;-83
2023/09/13 00:15:26;;;;;;;;;;;;;;;34.33;30.30;97909.69;5091632;28;20507;-84
2023/09/13 00:17:52;;;;;;;;;;;;;;;34.25;30.63;97911.44;5094033;28;19924;-83
2023/09/13 00:20:18;;;;;;;;;;;;;;;34.36;30.59;97903.72;5093425;28;20011;-84
2023/09/13 00:22:45;;;;;;;;;;;;;;;34.40;30.21;97903.50;5093750;28;19928;-84
2023/09/13 00:25:11;;;;;;;;;;;;;;;34.36;30.11;97906.59;5094140;28;19990;-84
2023/09/13 00:27:37;;;;;;;;;;;;;;;34.63;30.02;97908.06;5086308;28;19920;-84
2023/09/13 00:30:06;;;;;;;;;;;;;;;34.14;31.00;97906.44;5088194;28;19928;-83
2023/09/13 00:32:32;;;;;;;;;;;;;;;33.97;31.07;97897.75;5101098;28;19923;-84
2023/09/13 00:34:58;;;;;;;;;;;;;;;34.20;30.75;97893.00;5094255;28;19927;-84
2023/09/13 00:37:24;;;;;;;;;;;;;;;34.08;30.82;97892.16;5094938;28;20372;-83
2023/09/13 00:39:50;;;;;;;;;;;;;;;34.18;30.84;97894.78;5076980;28;19916;-83
2023/09/13 00:42:16;;;;;;;;;;;;;;;34.19;30.84;97893.53;5094870;28;19932;-84
2023/09/13 00:44:42;;;;;;;;;;;;;;;34.28;30.49;97893.31;5093188;28;19929;-83
2023/09/13 00:47:08;;;;;;;;;;;;;;;34.04;30.52;97890.81;5070357;28;19924;-83
2023/09/13 00:49:34;;;;;;;;;;;;;;;34.21;30.43;97899.50;5085527;28;19920;-83
2023/09/13 00:52:01;;;;;;;;;;;;;;;34.22;30.36;97896.13;5092910;28;19943;-84
2023/09/13 00:54:27;;;;;;;;;;;;;;;34.43;29.89;97897.56;5074797;28;19920;-83
2023/09/13 00:56:53;;;;;;;;;;;;;;;34.28;30.34;97893.31;5092885;28;20375;-83
2023/09/13 00:59:19;;;;;;;;;;;;;;;34.04;30.48;97893.66;5089638;28;20461;-83
2023/09/13 01:01:46;;;;;;;;;;;;;;;34.11;30.31;97896.06;5092306;28;19920;-84
2023/09/13 01:04:12;;;;;;;;;;;;;;;34.27;30.20;97898.22;5090416;28;19920;-83
2023/09/13 01:06:38;;;;;;;;;;;;;;;34.07;30.37;97899.13;5072931;28;19928;-84
2023/09/13 01:09:04;;;;;;;;;;;;;;;34.07;30.13;97890.56;5073779;28;19985;-84
2023/09/13 01:11:30;;;;;;;;;;;;;;;34.16;30.34;97900.22;5091835;28;20287;-84
2023/09/13 01:13:56;;;;;;;;;;;;;;;34.03;30.70;97892.88;5095668;28;20430;-83
2023/09/13 01:16:39;;;;;;;;;;;;;;;34.00;30.60;97891.00;5092569;28;19973;-83
2023/09/13 01:19:24;;;;;;;;;;;;;;;34.03;30.23;97895.72;5068024;28;19920;-84
2023/09/13 01:22:17;;;;;;;;;;;;;;;33.87;30.62;97899.22;5066683;28;20341;-83
2023/09/13 01:24:56;;;;;;;;;;;;;;;33.71;31.06;97893.38;5090245;28;19967;-83
2023/09/13 01:27:46;;;;;;;;;;;;;;;33.83;30.69;97900.72;5088774;28;20426;-84
2023/09/13 01:30:12;;;;;;;;;;;;;;;33.65;30.98;97895.41;5075529;28;19927;-83
2023/09/13 01:32:38;;;;;;;;;;;;;;;33.84;30.33;97902.31;5090712;28;19924;-83
2023/09/13 01:35:04;;;;;;;;;;;;;;;34.22;30.27;97898.97;5093810;28;19970;-83
2023/09/13 01:37:31;;;;;;;;;;;;;;;34.31;29.72;97895.16;5089100;28;20007;-84
2023/09/13 01:39:57;;;;;;;;;;;;;;;34.40;29.46;97887.16;5089278;28;19924;-84
2023/09/13 01:42:24;;;;;;;;;;;;;;;34.32;29.61;97891.00;5093653;28;19928;-83
2023/09/13 01:44:50;;;;;;;;;;;;;;;34.55;29.30;97887.81;5092168;28;19975;-83
2023/09/13 01:47:18;;;;;;;;;;;;;;;34.67;28.98;97880.88;5091260;28;19920;-84
2023/09/13 01:49:45;;;;;;;;;;;;;;;34.81;28.55;97887.66;5089726;28;19916;-84
2023/09/13 01:52:11;;;;;;;;;;;;;;;34.94;28.52;97881.50;5093445;28;19961;-83
2023/09/13 01:54:37;;;;;;;;;;;;;;;35.04;28.35;97886.47;5091027;28;20014;-83
2023/09/13 01:57:03;;;;;;;;;;;;;;;35.00;28.25;97885.13;5103976;28;20384;-83
2023/09/13 01:59:30;;;;;;;;;;;;;;;35.03;28.17;97887.75;5091298;28;19978;-83
2023/09/13 02:01:56;;;;;;;;;;;;;;;35.04;28.15;97889.31;5092244;28;19923;-83
2023/09/13 02:04:23;;;;;;;;;;;;;;;35.02;28.32;97886.22;5090502;28;19924;-83
2023/09/13 02:06:49;;;;;;;;;;;;;;;34.84;28.22;97875.22;5092727;28;19923;-83
2023/09/13 02:09:16;;;;;;;;;;;;;;;34.81;28.59;97881.94;5093519;28;20287;-83
2023/09/13 02:11:42;;;;;;;;;;;;;;;34.78;28.54;97887.88;5091473;28;20112;-84
2023/09/13 02:14:08;;;;;;;;;;;;;;;34.90;28.34;97884.56;5075372;28;19959;-83
2023/09/13 02:16:34;;;;;;;;;;;;;;;34.94;28.24;97884.34;5081383;28;20408;-84
2023/09/13 02:19:00;;;;;;;;;;;;;;;34.81;28.30;97887.66;5073370;28;19919;-83
2023/09/13 02:21:27;;;;;;;;;;;;;;;34.78;28.37;97882.97;5082554;28;19920;-83
2023/09/13 02:23:53;;;;;;;;;;;;;;;34.83;28.38;97884.28;5086402;28;20406;-83
2023/09/13 02:26:20;;;;;;;;;;;;;;;34.75;28.54;97896.19;5093020;28;20023;-83
2023/09/13 02:28:46;;;;;;;;;;;;;;;34.82;28.22;97894.94;5090304;28;19927;-84
2023/09/13 02:31:12;;;;;;;;;;;;;;;34.70;28.40;97885.53;5093253;28;20014;-84
2023/09/13 02:33:38;;;;;;;;;;;;;;;34.44;28.82;97889.78;5093223;28;20002;-83
2023/09/13 02:36:05;;;;;;;;;;;;;;;34.25;29.04;97888.63;5092808;28;20027;-83
2023/09/13 02:38:31;;;;;;;;;;;;;;;34.38;28.74;97880.44;5092858;28;19927;-83
2023/09/13 02:40:57;;;;;;;;;;;;;;;34.38;28.80;97881.19;5092950;28;19924;-84
2023/09/13 02:43:23;;;;;;;;;;;;;;;34.31;28.69;97875.97;5090899;28;19931;-83
2023/09/13 02:45:49;;;;;;;;;;;;;;;34.41;28.72;97883.03;5067738;28;20426;-83
2023/09/13 02:48:15;;;;;;;;;;;;;;;34.49;28.51;97883.34;5088395;28;19966;-83
2023/09/13 02:50:41;;;;;;;;;;;;;;;34.43;28.46;97879.66;5084589;28;19926;-83
2023/09/13 02:53:07;;;;;;;;;;;;;;;34.48;28.49;97882.56;5069183;28;20295;-83
2023/09/13 02:55:33;;;;;;;;;;;;;;;34.27;28.62;97881.13;5087935;28;19930;-83
2023/09/13 02:57:59;;;;;;;;;;;;;;;33.99;29.07;97885.81;5094187;28;20015;-83
2023/09/13 03:00:25;;;;;;;;;;;;;;;33.69;29.51;97879.66;5092805;28;20606;-83
2023/09/13 03:02:51;;;;;;;;;;;;;;;33.87;29.23;97887.03;5093408;28;19931;-83
2023/09/13 03:05:17;;;;;;;;;;;;;;;34.06;29.03;97889.03;5091295;28;19955;-84
2023/09/13 03:07:43;;;;;;;;;;;;;;;34.04;29.30;97877.34;5095713;28;20383;-83
2023/09/13 03:10:09;;;;;;;;;;;;;;;34.21;28.69;97877.47;5095626;28;19961;-83
2023/09/13 03:12:35;;;;;;;;;;;;;;;34.15;28.87;97882.34;5092105;28;19932;-83
2023/09/13 03:15:03;;;;;;;;;;;;;;;34.25;28.67;97880.06;5087555;28;19912;-83
2023/09/13 03:17:29;;;;;;;;;;;;;;;34.31;28.50;97878.81;5079181;28;19920;-83
2023/09/13 03:19:55;;;;;;;;;;;;;;;34.47;28.31;97875.28;5075676;28;19928;-84
2023/09/13 03:22:21;;;;;;;;;;;;;;;34.42;28.30;97878.13;5096155;28;19931;-83
2023/09/13 03:24:47;;;;;;;;;;;;;;;34.37;28.70;97873.16;5096540;28;19939;-83
2023/09/13 03:27:13;;;;;;;;;;;;;;;34.32;28.71;97871.03;5087582;28;19925;-83
2023/09/13 03:29:39;;;;;;;;;;;;;;;34.14;28.74;97871.47;5096009;28;20374;-83
2023/09/13 03:32:06;;;;;;;;;;;;;;;34.20;28.39;97869.41;5096221;28;19992;-83
2023/09/13 03:34:32;;;;;;;;;;;;;;;34.22;28.44;97872.53;5093940;28;19920;-83
2023/09/13 03:36:58;;;;;;;;;;;;;;;34.32;28.13;97883.25;5093975;28;19916;-83
2023/09/13 03:39:28;;;;;;;;;;;;;;;34.15;28.45;97881.56;5095404;28;19916;-83
2023/09/13 03:41:55;;;;;;;;;;;;;;;34.23;28.36;97872.03;5095586;28;19930;-83
2023/09/13 03:44:21;;;;;;;;;;;;;;;34.20;28.45;97870.19;5095988;28;19939;-83
2023/09/13 03:46:47;;;;;;;;;;;;;;;34.01;28.12;97874.69;5092947;28;20273;-83
2023/09/13 03:49:13;;;;;;;;;;;;;;;33.71;28.76;97874.22;5116300;28;19924;-83
2023/09/13 03:51:39;;;;;;;;;;;;;;;33.82;28.52;97874.31;5096904;28;19916;-83
2023/09/13 03:54:05;;;;;;;;;;;;;;;34.00;28.23;97870.31;5094425;28;20291;-83
2023/09/13 03:56:31;;;;;;;;;;;;;;;34.04;28.24;97871.66;5095777;28;19920;-83
2023/09/13 03:58:57;;;;;;;;;;;;;;;33.79;28.74;97871.69;5095693;28;19923;-83
2023/09/13 04:01:24;;;;;;;;;;;;;;;33.60;29.01;97874.13;5095646;28;19916;-83
2023/09/13 04:03:50;;;;;;;;;;;;;;;33.54;28.70;97869.69;5095838;28;19962;-83
2023/09/13 04:06:16;;;;;;;;;;;;;;;33.49;28.76;97862.63;5094631;28;19920;-84
2023/09/13 04:08:42;;;;;;;;;;;;;;;33.55;28.66;97866.31;5090423;28;20015;-85
2023/09/13 04:11:08;;;;;;;;;;;;;;;33.72;28.70;97870.09;5091757;28;20015;-84
2023/09/13 04:13:34;;;;;;;;;;;;;;;33.69;29.21;97868.25;5092732;28;19920;-84
2023/09/13 04:16:02;;;;;;;;;;;;;;;33.61;29.39;97872.81;5093874;28;19963;-84
2023/09/13 04:18:28;;;;;;;;;;;;;;;33.65;28.99;97875.47;5090475;28;19934;-89
2023/09/13 04:20:54;;;;;;;;;;;;;;;33.80;28.84;97868.34;5079108;28;20422;-86
2023/09/13 04:23:20;;;;;;;;;;;;;;;33.75;28.82;97877.59;5090059;28;19923;-85
2023/09/13 04:25:47;;;;;;;;;;;;;;;33.60;29.26;97867.66;5074293;28;20403;-86
2023/09/13 04:28:13;;;;;;;;;;;;;;;33.47;29.19;97875.78;5092902;28;19924;-84
2023/09/13 04:30:39;;;;;;;;;;;;;;;33.50;28.98;97880.47;5074233;28;20383;-85
2023/09/13 04:33:06;;;;;;;;;;;;;;;33.56;28.81;97878.50;5089252;28;19920;-85
2023/09/13 04:35:32;;;;;;;;;;;;;;;33.31;29.15;97877.97;5091084;28;21563;-85
2023/09/13 04:37:59;;;;;;;;;;;;;;;33.37;29.09;97875.19;5090576;28;19924;-87
2023/09/13 04:40:24;;;;;;;;;;;;;;;33.52;29.20;97878.69;5091217;28;19920;-84
2023/09/13 04:42:54;;;;;;;;;;;;;;;33.36;29.40;97870.75;5091881;28;20315;-85
2023/09/13 04:45:20;;;;;;;;;;;;;;;33.43;29.44;97865.41;5089209;28;19920;-84
2023/09/13 04:47:46;;;;;;;;;;;;;;;33.61;29.38;97858.59;5090838;28;19920;-83
2023/09/13 04:50:12;;;;;;;;;;;;;;;33.68;29.32;97868.78;5088693;28;20459;-83
2023/09/13 04:52:38;;;;;;;;;;;;;;;33.65;28.89;97862.00;5090022;28;19927;-83
2023/09/13 04:55:05;;;;;;;;;;;;;;;33.68;28.62;97878.06;5092458;28;19927;-83
2023/09/13 04:57:31;;;;;;;;;;;;;;;33.79;28.66;97872.50;5085473;28;19924;-83
2023/09/13 04:59:57;;;;;;;;;;;;;;;33.85;28.63;97878.22;5087367;28;19935;-83
2023/09/13 05:02:23;;;;;;;;;;;;;;;33.93;28.83;97876.47;5072298;28;19924;-84
2023/09/13 05:04:49;;;;;;;;;;;;;;;33.91;28.68;97871.25;5088114;28;19927;-83
2023/09/13 05:07:15;;;;;;;;;;;;;;;34.24;28.83;97872.81;5092668;28;19970;-82
2023/09/13 05:09:41;;;;;;;;;;;;;;;34.05;29.08;97876.06;5095061;28;19993;-82
2023/09/13 05:12:07;;;;;;;;;;;;;;;34.12;29.16;97874.81;5103177;28;20038;-83
2023/09/13 05:14:36;;;;;;;;;;;;;;;34.10;29.34;97874.53;5076113;28;20290;-83
2023/09/13 05:17:02;;;;;;;;;;;;;;;34.08;29.20;97880.75;5093289;28;19966;-82
2023/09/13 05:19:28;;;;;;;;;;;;;;;34.11;29.20;97869.63;5111807;28;19970;-82
2023/09/13 05:21:54;;;;;;;;;;;;;;;34.44;29.02;97876.31;5114485;28;19920;-82
2023/09/13 05:24:20;;;;;;;;;;;;;;;34.78;28.64;97873.63;5114804;28;20019;-82
2023/09/13 05:26:46;;;;;;;;;;;;;;;34.83;28.89;97870.81;5097335;28;19920;-82
2023/09/13 05:29:12;;;;;;;;;;;;;;;34.77;28.74;97872.09;5075902;28;19939;-83
2023/09/13 05:31:38;;;;;;;;;;;;;;;34.89;28.20;97871.63;5094081;28;19916;-83
2023/09/13 05:34:04;;;;;;;;;;;;;;;34.87;28.80;97864.88;5094797;28;19973;-83
2023/09/13 05:36:30;;;;;;;;;;;;;;;34.90;29.32;97864.59;5097159;28;21259;-82
2023/09/13 05:38:56;;;;;;;;;;;;;;;35.13;28.27;97868.31;5095241;28;19916;-82
2023/09/13 05:41:22;;;;;;;;;;;;;;;35.40;27.88;97864.75;5093065;28;19924;-83
2023/09/13 05:43:48;;;;;;;;;;;;;;;35.62;27.44;97873.38;5081982;28;20320;-82
2023/09/13 05:46:15;;;;;;;;;;;;;;;35.45;29.69;97866.84;5055761;28;19986;-82
2023/09/13 05:48:41;;;;;;;;;;;;;;;35.41;29.67;97864.22;5086045;28;20372;-82
2023/09/13 05:51:07;;;;;;;;;;;;;;;35.32;27.95;97864.47;5094158;28;19926;-83
2023/09/13 05:53:33;;;;;;;;;;;;;;;35.40;29.01;97864.75;5093608;28;19924;-83
2023/09/13 05:55:59;;;;;;;;;;;;;;;35.54;28.46;97871.56;5093864;28;19916;-83
2023/09/13 05:58:25;;;;;;;;;;;;;;;35.42;29.22;97868.66;5093808;28;19923;-83
2023/09/13 06:00:51;;;;;;;;;;;;;;;35.32;30.49;97869.41;5093485;28;20403;-83
2023/09/13 06:03:18;;;;;;;;;;;;;;;35.27;28.81;97865.25;5092959;28;19966;-82
2023/09/13 06:05:44;;;;;;;;;;;;;;;35.21;28.68;97870.19;5093552;28;19920;-83
2023/09/13 06:08:10;;;;;;;;;;;;;;;35.32;29.72;97867.34;5093754;28;19962;-83
2023/09/13 06:10:36;;;;;;;;;;;;;;;35.70;28.11;97874.41;5093540;28;19923;-83
2023/09/13 06:13:02;;;;;;;;;;;;;;;35.74;29.18;97872.06;5093747;28;19923;-83
2023/09/13 06:15:28;;;;;;;;;;;;;;;35.95;29.40;97876.22;5093700;28;19920;-83
2023/09/13 06:17:55;;;;;;;;;;;;;;;36.01;28.07;97879.88;5093331;28;19927;-83
2023/09/13 06:20:21;;;;;;;;;;;;;;;36.14;28.71;97885.06;5099925;28;19920;-83
2023/09/13 06:22:47;;;;;;;;;;;;;;;36.28;28.42;97883.22;5108749;28;19962;-83
2023/09/13 06:25:16;;;;;;;;;;;;;;;36.24;29.04;97877.78;5089016;28;20003;-83
2023/09/13 06:27:43;;;;;;;;;;;;;;;36.38;29.18;97881.66;5077209;28;19928;-83
2023/09/13 06:30:09;;;;;;;;;;;;;;;36.44;28.72;97876.69;5095783;28;20368;-83
2023/09/13 06:32:35;;;;;;;;;;;;;;;36.52;28.96;97884.25;5095988;28;19971;-83
2023/09/13 06:35:02;;;;;;;;;;;;;;;36.66;28.98;97880.31;5096264;28;19961;-83
2023/09/13 06:37:28;;;;;;;;;;;;;;;36.71;29.76;97876.63;5096121;28;19985;-83
2023/09/13 06:39:54;;;;;;;;;;;;;;;36.87;29.30;97879.94;5096005;28;20363;-83
2023/09/13 06:42:20;;;;;;;;;;;;;;;36.95;28.67;97886.69;5074410;28;20300;-83
2023/09/13 06:44:46;;;;;;;;;;;;;;;36.86;28.98;97887.75;5076158;28;20296;-83
2023/09/13 06:47:12;;;;;;;;;;;;;;;36.81;28.94;97890.66;5075672;28;19923;-83
2023/09/13 06:49:38;;;;;;;;;;;;;;;36.76;27.80;97885.72;5082700;28;20519;-83
2023/09/13 06:52:04;;;;;;;;;;;;;;;36.78;28.62;97883.09;5115596;28;20000;-83
2023/09/13 06:54:30;;;;;;;;;;;;;;;36.49;29.72;97887.38;5115863;28;19912;-83
2023/09/13 06:56:56;;;;;;;;;;;;;;;36.60;28.85;97893.03;5108744;28;19916;-82
2023/09/13 06:59:22;;;;;;;;;;;;;;;36.58;28.76;97893.56;5077723;28;19923;-83
2023/09/13 07:01:48;;;;;;;;;;;;;;;36.80;29.13;97884.13;5090900;28;19916;-83
2023/09/13 07:04:15;;;;;;;;;;;;;;;36.38;29.83;97895.94;5095787;28;20283;-83
2023/09/13 07:06:41;;;;;;;;;;;;;;;36.64;28.28;97880.03;5095749;28;19973;-83
2023/09/13 07:09:07;;;;;;;;;;;;;;;36.63;28.67;97897.72;5095179;28;19916;-83
2023/09/13 07:11:33;;;;;;;;;;;;;;;36.88;29.70;97899.44;5095256;28;20357;-83
2023/09/13 07:14:02;;;;;;;;;;;;;;;37.05;28.32;97902.25;5081565;28;19920;-83
2023/09/13 07:16:28;;;;;;;;;;;;;;;37.10;27.37;97899.38;5095644;28;19916;-83
2023/09/13 07:18:55;;;;;;;;;;;;;;;36.91;28.87;97909.06;5095577;28;19919;-83
2023/09/13 07:21:21;;;;;;;;;;;;;;;37.28;28.72;97907.34;5047945;28;1861263;-83
2023/09/13 07:23:47;;;;;;;;;;;;;;;37.07;27.63;97906.16;5117155;28;19920;-82
2023/09/13 07:26:14;;;;;;;;;;;;;;;37.04;29.30;97903.59;5117222;28;19942;-83
2023/09/13 07:28:40;;;;;;;;;;;;;;;37.12;27.60;97904.56;5116717;28;19916;-83
2023/09/13 07:31:07;;;;;;;;;;;;;;;37.14;28.43;97904.81;5110163;28;19916;-83
2023/09/13 07:33:33;;;;;;;;;;;;;;;37.58;27.66;97906.66;5081846;28;19932;-83
2023/09/13 07:35:59;;;;;;;;;;;;;;;38.08;28.11;97901.34;5076433;28;19916;-83
2023/09/13 07:38:25;;;;;;;;;;;;;;;37.70;26.98;97905.28;5057816;28;19923;-83
2023/09/13 07:40:51;;;;;;;;;;;;;;;37.75;27.07;97913.06;5086199;28;20288;-83
2023/09/13 07:43:17;;;;;;;;;;;;;;;37.77;27.19;97921.91;5096324;28;19928;-83
2023/09/13 07:45:44;;;;;;;;;;;;;;;38.17;27.91;97914.56;5096141;28;19965;-83
2023/09/13 07:48:10;;;;;;;;;;;;;;;37.65;27.37;97914.69;5096031;28;19916;-83
2023/09/13 07:50:38;;;;;;;;;;;;;;;38.12;27.85;97916.16;5096033;28;19961;-83
2023/09/13 07:53:04;;;;;;;;;;;;;;;37.73;27.92;97919.34;5096174;28;19920;-83
2023/09/13 07:55:30;;;;;;;;;;;;;;;37.74;27.04;97917.25;5096204;28;19942;-83
2023/09/13 07:57:56;;;;;;;;;;;;;;;37.70;27.24;97916.72;5095715;28;19916;-83
2023/09/13 08:00:22;;;;;;;;;;;;;;;38.01;28.47;97916.25;5095897;28;20496;-83
2023/09/13 08:02:48;;;;;;;;;;;;;;;38.12;26.68;97912.50;5095900;28;19920;-83
2023/09/13 08:05:15;;;;;;;;;;;;;;;38.09;26.84;97910.72;5095882;28;20014;-83
2023/09/13 08:07:42;;;;;;;;;;;;;;;37.99;27.65;97911.06;5095926;28;19923;-83
2023/09/13 08:10:08;;;;;;;;;;;;;;;38.38;27.63;97910.72;5096021;28;20279;-84
2023/09/13 08:12:34;;;;;;;;;;;;;;;38.74;26.24;97910.63;5076697;28;19916;-84
2023/09/13 08:15:00;;;;;;;;;;;;;;;38.70;26.40;97916.63;5075443;28;19924;-84
2023/09/13 08:17:26;;;;;;;;;;;;;;;38.97;25.99;97906.97;5075387;28;20330;-84
2023/09/13 08:19:52;;;;;;;;;;;;;;;39.07;26.71;97910.22;5082734;28;19999;-84
2023/09/13 08:22:18;;;;;;;;;;;;;;;39.27;25.58;97904.75;5095383;28;19920;-83
2023/09/13 08:24:44;;;;;;;;;;;;;;;39.58;25.72;97911.91;5095825;28;19923;-84
2023/09/13 08:27:10;;;;;;;;;;;;;;;39.48;26.36;97907.84;5095447;28;19916;-84
2023/09/13 08:29:37;;;;;;;;;;;;;;;39.36;26.23;97903.56;5095415;28;20421;-83
2023/09/13 08:32:03;;;;;;;;;;;;;;;39.56;25.90;97903.00;5095462;28;19920;-83
2023/09/13 08:34:29;;;;;;;;;;;;;;;39.88;24.36;97898.09;5095254;28;19916;-84
2023/09/13 08:36:56;;;;;;;;;;;;;;;39.96;25.70;97898.22;5077152;28;19922;-84
2023/09/13 08:39:22;;;;;;;;;;;;;;;39.88;25.04;97903.06;5095419;28;19916;-84
2023/09/13 08:41:52;;;;;;;;;;;;;;;39.78;24.21;97899.81;5094931;28;19923;-84
2023/09/13 08:44:22;;;;;;;;;;;;;;;39.80;24.38;97905.81;5095432;28;19967;-84
2023/09/13 08:46:55;;;;;;;;;;;;;;;39.89;25.66;97902.50;5095126;28;19923;-84
2023/09/13 08:49:21;;;;;;;;;;;;;;;39.79;24.56;97901.38;5093868;28;19992;-84
2023/09/13 08:51:47;;;;;;;;;;;;;;;39.82;24.75;97908.13;5076709;28;20006;-84
2023/09/13 08:54:14;;;;;;;;;;;;;;;40.18;24.52;97903.63;5094950;28;19920;-84
2023/09/13 08:56:43;;;;;;;;;;;;;;;40.49;24.84;97910.69;5094487;28;19916;-84
2023/09/13 08:59:09;;;;;;;;;;;;;;;40.56;23.85;97895.63;5094666;28;20392;-83
2023/09/13 09:01:36;;;;;;;;;;;;;;;40.78;23.76;97900.16;5094798;28;19920;-83
2023/09/13 09:04:03;;;;;;;;;;;;;;;40.84;22.68;97907.38;5076537;28;20287;-84
2023/09/13 09:06:30;;;;;;;;;;;;;;;40.90;23.36;97901.50;5094711;28;19916;-84
2023/09/13 09:08:56;;;;;;;;;;;;;;;40.93;23.84;97897.53;5094572;28;19923;-84
2023/09/13 09:11:24;;;;;;;;;;;;;;;40.99;24.24;97901.81;5076495;28;19916;-84
2023/09/13 09:13:50;;;;;;;;;;;;;;;40.89;24.61;97888.44;5086352;28;19920;-84
2023/09/13 09:16:17;;;;;;;;;;;;;;;40.84;24.52;97895.06;5094462;28;19916;-84
2023/09/13 09:18:44;;;;;;;;;;;;;;;40.55;23.36;97894.84;5094567;28;19963;-84
2023/09/13 09:21:10;;;;;;;;;;;;;;;40.17;23.28;97887.66;5094264;28;19930;-84
2023/09/13 09:37:07;;;;;;;;;;;;;;;40.21;23.61;97891.03;5131701;27;19923;-83
2023/09/13 09:39:36;;;;;;;;;;;;;;;40.54;24.70;97895.41;5131491;27;19923;-83
2023/09/13 09:42:02;;;;;;;;;;;;;;;40.86;23.26;97883.78;5126939;27;19926;-83
2023/09/13 09:44:28;;;;;;;;;;;;;;;40.59;23.30;97883.75;5109754;28;19928;-83
2023/09/13 09:46:54;;;;;;;;;;;;;;;41.04;23.17;97880.78;5110960;28;19920;-83
2023/09/13 09:49:21;;;;;;;;;;;;;;;41.17;23.11;97880.72;5111104;28;19916;-83
2023/09/13 09:51:47;;;;;;;;;;;;;;;41.07;22.94;97878.88;5110986;28;19916;-83
2023/09/13 09:54:13;;;;;;;;;;;;;;;41.25;22.78;97872.97;5110839;28;20376;-83
2023/09/13 09:56:40;;;;;;;;;;;;;;;41.15;24.15;97882.63;5110102;28;19927;-83
2023/09/13 09:59:06;;;;;;;;;;;;;;;41.42;23.83;97884.16;5110689;28;19927;-83
2023/09/13 10:01:32;;;;;;;;;;;;;;;41.48;22.65;97884.00;5110694;28;19928;-83
2023/09/13 10:04:11;;;;;;;;;;;;;;;41.79;23.27;97877.25;5115606;28;20383;-83
2023/09/13 10:06:37;;;;;;;;;;;;;;;41.22;21.70;97879.84;5131182;27;20417;-83
2023/09/13 10:09:04;;;;;;;;;;;;;;;40.86;22.50;97890.34;5129712;28;19988;-83
2023/09/13 10:11:30;;;;;;;;;;;;;;;41.13;22.69;97886.06;5129782;28;19923;-83
2023/09/13 10:13:56;;;;;;;;;;;;;;;40.67;22.34;97890.41;5125571;27;19920;-83
2023/09/13 10:16:26;;;;;;;;;;;;;;;40.32;22.71;97887.16;5110519;28;19916;-83
2023/09/13 10:18:52;;;;;;;;;;;;;;;39.93;23.58;97877.06;5110715;28;20024;-83
2023/09/13 10:21:21;;;;;;;;;;;;;;;39.98;23.10;97873.31;5100096;28;19920;-83
2023/09/13 10:23:52;;;;;;;;;;;;;;;40.52;23.22;97875.00;5110433;28;19927;-83
2023/09/13 10:26:18;;;;;;;;;;;;;;;41.06;22.83;97877.31;5110020;28;20019;-83
2023/09/13 10:28:45;;;;;;;;;;;;;;;41.26;21.99;97868.78;5110274;28;19916;-83
2023/09/13 10:31:18;;;;;;;;;;;;;;;41.49;22.50;97863.28;5110396;28;19923;-83
2023/09/13 10:33:48;;;;;;;;;;;;;;;41.85;21.92;97872.09;5109590;28;19942;-83
2023/09/13 10:36:19;;;;;;;;;;;;;;;42.13;21.75;97865.69;5097063;27;19931;-83
2023/09/13 10:38:46;;;;;;;;;;;;;;;42.09;22.15;97871.78;5095613;28;19985;-83
2023/09/13 10:41:17;;;;;;;;;;;;;;;42.32;21.81;97866.97;5096657;28;20277;-83
2023/09/13 10:43:43;;;;;;;;;;;;;;;41.55;21.69;97863.13;5096475;28;19920;-82
2023/09/13 10:46:10;;;;;;;;;;;;;;;41.97;22.80;97873.38;5096863;28;19920;-82
2023/09/13 10:48:38;;;;;;;;;;;;;;;42.07;22.88;97871.56;5096409;28;19917;-83
2023/09/13 10:51:04;;;;;;;;;;;;;;;42.29;22.42;97870.97;5094917;28;20006;-83
2023/09/13 10:53:31;;;;;;;;;;;;;;;42.57;21.61;97873.91;5096314;28;19923;-83
2023/09/13 10:55:57;;;;;;;;;;;;;;;42.40;20.85;97864.91;5112390;28;19967;-83
2023/09/13 10:58:24;;;;;;;;;;;;;;;42.21;21.25;97870.16;5114923;28;19924;-83
2023/09/13 11:00:53;;;;;;;;;;;;;;;42.12;21.83;97867.00;5116286;28;19922;-83
2023/09/13 11:03:19;;;;;;;;;;;;;;;42.33;21.03;97865.63;5115625;28;20011;-84
2023/09/13 11:05:47;;;;;;;;;;;;;;;42.65;20.49;97873.97;5115783;28;20356;-83
2023/09/13 11:08:27;;;;;;;;;;;;;;;42.72;21.64;97869.56;5101810;28;19919;-83
2023/09/13 11:10:54;;;;;;;;;;;;;;;42.58;20.93;97866.03;5096130;28;19927;-83
2023/09/13 11:13:28;;;;;;;;;;;;;;;42.37;23.69;97856.59;5095775;28;19938;-83
2023/09/13 11:15:55;;;;;;;;;;;;;;;42.51;21.41;97867.53;5095809;28;19920;-83
2023/09/13 11:18:25;;;;;;;;;;;;;;;42.27;20.52;97862.13;5089616;28;20008;-83
2023/09/13 11:20:54;;;;;;;;;;;;;;;41.51;20.38;97857.72;5080648;28;20019;-83
2023/09/13 11:23:20;;;;;;;;;;;;;;;41.79;22.53;97862.84;5094185;28;19920;-83
2023/09/13 11:25:53;;;;;;;;;;;;;;;41.73;21.43;97862.22;5110978;28;19920;-83
2023/09/13 11:28:43;;;;;;;;;;;;;;;41.74;21.34;97860.84;5116114;28;20300;-83
2023/09/13 11:31:10;;;;;;;;;;;;;;;41.77;20.97;97851.88;5115712;28;19923;-83
2023/09/13 11:33:43;;;;;;;;;;;;;;;41.95;21.88;97859.53;5109187;28;20371;-83
2023/09/13 11:36:14;;;;;;;;;;;;;;;42.42;21.68;97861.47;5115418;28;19924;-83
2023/09/13 11:38:41;;;;;;;;;;;;;;;42.70;21.89;97858.59;5115873;28;19916;-83
2023/09/13 11:41:07;;;;;;;;;;;;;;;42.77;20.44;97857.06;5110314;28;20288;-83
2023/09/13 11:43:36;;;;;;;;;;;;;;;43.03;20.58;97856.84;5095313;28;20388;-83
2023/09/13 11:46:03;;;;;;;;;;;;;;;42.76;21.88;97861.31;5095422;28;19916;-83
2023/09/13 11:48:32;;;;;;;;;;;;;;;42.76;21.92;97858.44;5094267;28;20330;-83
2023/09/13 11:51:08;;;;;;;;;;;;;;;42.67;20.67;97859.72;5094939;28;19924;-83
2023/09/13 11:53:34;;;;;;;;;;;;;;;42.08;21.56;97858.69;5108200;28;19954;-83
2023/09/13 11:56:02;;;;;;;;;;;;;;;42.19;21.68;97848.97;5115450;28;19916;-83
2023/09/13 11:58:36;;;;;;;;;;;;;;;42.80;21.33;97848.06;5107642;28;19916;-83
2023/09/13 12:01:06;;;;;;;;;;;;;;;42.93;20.30;97847.16;5085745;28;19924;-83
2023/09/13 12:03:33;;;;;;;;;;;;;;;42.82;20.40;97848.25;5085084;28;20381;-82
2023/09/13 12:06:00;;;;;;;;;;;;;;;42.84;20.56;97854.22;5094804;28;19938;-81
2023/09/13 12:08:27;;;;;;;;;;;;;;;42.89;20.26;97858.34;5094913;28;19924;-82
2023/09/13 12:10:57;;;;;;;;;;;;;;;42.37;20.35;97857.38;5088140;28;19920;-82
2023/09/13 12:13:42;;;;;;;;;;;;;;;42.41;21.23;97852.00;5094936;28;20288;-82
2023/09/13 12:16:08;;;;;;;;;;;;;;;42.09;21.26;97857.34;5086786;28;19975;-82
2023/09/13 12:18:36;;;;;;;;;;;;;;;42.63;20.96;97854.31;5075037;28;19917;-82
2023/09/13 12:21:03;;;;;;;;;;;;;;;42.38;21.30;97861.84;5090083;28;19996;-83
2023/09/13 12:23:33;;;;;;;;;;;;;;;41.82;21.43;97850.19;5094099;28;19927;-82
2023/09/13 12:25:59;;;;;;;;;;;;;;;41.60;21.49;97853.56;5093772;28;20017;-82
2023/09/13 12:28:26;;;;;;;;;;;;;;;41.39;21.81;97852.78;5094566;28;20013;-83
2023/09/13 12:30:53;;;;;;;;;;;;;;;41.39;22.08;97858.53;5090749;28;19932;-82
2023/09/13 12:33:20;;;;;;;;;;;;;;;41.61;22.37;97852.25;5087981;28;20282;-82
2023/09/13 12:35:47;;;;;;;;;;;;;;;41.65;21.13;97852.66;5087958;28;20323;-83
2023/09/13 12:38:13;;;;;;;;;;;;;;;41.59;21.50;97855.69;5083769;28;19920;-83
2023/09/13 12:40:46;;;;;;;;;;;;;;;42.08;20.68;97852.91;5090068;28;19953;-83
2023/09/13 12:43:12;;;;;;;;;;;;;;;42.23;21.22;97843.59;5096207;28;19927;-83
2023/09/13 12:45:40;;;;;;;;;;;;;;;42.73;22.66;97845.13;5089842;28;19921;-83
2023/09/13 12:48:06;;;;;;;;;;;;;;;42.83;20.52;97841.13;5089153;28;19920;-82
2023/09/13 12:50:33;;;;;;;;;;;;;;;42.34;21.26;97849.09;5093210;28;19974;-83
2023/09/13 12:52:59;;;;;;;;;;;;;;;42.07;20.21;97847.69;5090980;28;19919;-82
2023/09/13 12:55:25;;;;;;;;;;;;;;;42.41;19.41;97849.13;5079420;28;19920;-83
2023/09/13 12:57:52;;;;;;;;;;;;;;;42.51;21.01;97838.66;5085986;28;19920;-83
2023/09/13 13:00:18;;;;;;;;;;;;;;;42.74;19.80;97847.44;5086412;28;19920;-82